createdAt,value
2019-03-22T00:02:12.856Z,40.90
2019-03-22T00:04:43.499Z,36.47
2019-03-22T00:07:14.138Z,37.97
2019-03-22T00:09:44.736Z,41.37
2019-03-22T00:12:15.330Z,34.00
2019-03-22T00:14:45.946Z,37.83
2019-03-22T00:17:16.540Z,36.97
2019-03-22T00:19:47.186Z,40.57
2019-03-22T00:22:17.764Z,34.33
2019-03-22T00:24:48.380Z,41.20
2019-03-22T00:27:19.120Z,39.37
2019-03-22T00:29:49.747Z,34.27
2019-03-22T00:32:20.354Z,37.60
2019-03-22T00:34:50.952Z,33.67
2019-03-22T00:37:21.568Z,33.80
2019-03-22T00:39:52.194Z,35.93
2019-03-22T00:42:25.170Z,38.27
2019-03-22T00:44:55.773Z,37.20
2019-03-22T00:47:26.351Z,36.57
2019-03-22T00:49:56.975Z,40.10
2019-03-22T00:52:27.554Z,33.27
2019-03-22T00:54:58.178Z,38.73
2019-03-22T00:57:29.004Z,37.23
2019-03-22T00:59:59.558Z,37.93
2019-03-22T01:02:30.114Z,35.10
2019-03-22T01:05:00.770Z,39.43
2019-03-22T01:07:31.332Z,34.30
2019-03-22T01:10:02.850Z,41.90
2019-03-22T01:12:33.488Z,39.87
2019-03-22T01:15:04.282Z,40.27
2019-03-22T01:17:34.851Z,38.93
2019-03-22T01:20:06.360Z,37.50
2019-03-22T01:22:36.947Z,38.70
2019-03-22T01:25:07.638Z,40.30
2019-03-22T01:27:40.832Z,43.87
2019-03-22T01:30:11.032Z,40.10
2019-03-22T01:32:41.623Z,41.60
2019-03-22T01:35:12.310Z,35.43
2019-03-22T01:37:42.901Z,37.53
2019-03-22T01:40:13.645Z,42.93
2019-03-22T01:42:44.321Z,39.03
2019-03-22T01:45:15.354Z,40.30
2019-03-22T01:47:45.914Z,43.43
2019-03-22T01:50:16.570Z,39.93
2019-03-22T01:52:47.200Z,42.27
2019-03-22T01:55:17.815Z,43.77
2019-03-22T01:57:53.704Z,37.53
2019-03-22T02:00:20.884Z,48.67
2019-03-22T02:02:51.484Z,41.87
2019-03-22T02:05:22.122Z,40.93
2019-03-22T02:07:52.722Z,46.40
2019-03-22T02:10:23.342Z,40.40
2019-03-22T02:12:53.924Z,45.93
2019-03-22T02:15:24.536Z,48.57
2019-03-22T02:17:55.182Z,44.47
2019-03-22T02:20:25.800Z,47.13
2019-03-22T02:22:56.474Z,41.53
2019-03-22T02:25:27.077Z,41.47
2019-03-22T02:28:04.225Z,44.17
2019-03-22T02:30:29.999Z,44.13
2019-03-22T02:33:00.573Z,43.77
2019-03-22T02:35:31.173Z,41.03
2019-03-22T02:38:01.758Z,44.17
2019-03-22T02:40:32.401Z,45.07
2019-03-22T02:43:03.004Z,42.50
2019-03-22T02:45:33.614Z,45.53
2019-03-22T02:48:04.321Z,45.43
2019-03-22T02:50:34.958Z,42.87
2019-03-22T02:53:05.548Z,48.70
2019-03-22T02:55:36.219Z,44.77
2019-03-22T02:58:19.893Z,41.50
2019-03-22T03:00:39.317Z,43.00
2019-03-22T03:03:09.981Z,40.23
2019-03-22T03:05:40.628Z,40.50
2019-03-22T03:08:11.222Z,38.77
2019-03-22T03:10:41.844Z,38.63
2019-03-22T03:13:12.423Z,40.73
2019-03-22T03:15:43.045Z,39.33
2019-03-22T03:18:13.683Z,39.80
2019-03-22T03:20:44.338Z,40.10
2019-03-22T03:23:14.884Z,40.27
2019-03-22T03:25:45.494Z,40.90
2019-03-22T03:28:16.249Z,38.30
2019-03-22T03:30:46.868Z,36.63
2019-03-22T03:33:17.534Z,42.37
2019-03-22T03:35:48.103Z,39.13
2019-03-22T03:38:18.753Z,34.17
2019-03-22T03:40:49.388Z,37.70
2019-03-22T03:43:19.977Z,45.17
2019-03-22T03:45:50.678Z,44.27
2019-03-22T03:48:21.286Z,37.43
2019-03-22T03:50:51.950Z,43.03
2019-03-22T03:53:22.545Z,39.23
2019-03-22T03:55:53.194Z,41.63
2019-03-22T03:58:23.773Z,38.77
2019-03-22T04:00:54.424Z,40.23
2019-03-22T04:03:25.127Z,45.27
2019-03-22T04:05:55.718Z,38.07
2019-03-22T04:08:26.314Z,40.13
2019-03-22T04:10:56.925Z,43.17
2019-03-22T04:13:27.511Z,42.40
2019-03-22T04:15:58.141Z,41.93
2019-03-22T04:18:28.739Z,47.07
2019-03-22T04:20:59.340Z,40.60
2019-03-22T04:23:30.009Z,43.70
2019-03-22T04:26:00.630Z,37.00
2019-03-22T04:28:31.187Z,44.33
2019-03-22T04:31:01.876Z,41.33
2019-03-22T04:33:32.512Z,40.53
2019-03-22T04:36:03.165Z,41.57
2019-03-22T04:38:33.748Z,42.60
2019-03-22T04:41:04.360Z,42.97
2019-03-22T04:43:34.937Z,43.10
2019-03-22T04:46:06.184Z,38.03
2019-03-22T04:48:38.083Z,42.40
2019-03-22T04:51:09.718Z,40.87
2019-03-22T04:53:46.938Z,39.70
2019-03-22T04:56:18.974Z,39.67
2019-03-22T04:58:51.447Z,44.53
2019-03-22T05:01:23.285Z,44.93
2019-03-22T05:03:54.439Z,42.27
2019-03-22T05:06:25.263Z,40.20
2019-03-22T05:08:56.893Z,41.70
2019-03-22T05:11:28.012Z,43.53
2019-03-22T05:13:59.568Z,45.03
2019-03-22T05:16:30.767Z,41.37
2019-03-22T05:19:02.794Z,41.47
2019-03-22T05:21:33.820Z,46.20
2019-03-22T05:24:05.699Z,45.53
2019-03-22T05:26:37.808Z,49.07
2019-03-22T05:29:08.726Z,39.70
2019-03-22T05:31:58.693Z,41.03
2019-03-22T05:34:29.463Z,40.90
2019-03-22T05:37:00.130Z,36.90
2019-03-22T05:39:30.726Z,43.77
2019-03-22T05:42:03.282Z,47.37
2019-03-22T05:44:33.908Z,45.97
2019-03-22T05:47:04.491Z,42.60
2019-03-22T05:49:35.116Z,45.80
2019-03-22T05:52:05.861Z,38.67
2019-03-22T05:54:36.440Z,43.93
2019-03-22T05:57:13.434Z,40.73
2019-03-22T05:59:42.905Z,42.87
2019-03-22T06:02:11.906Z,40.23
2019-03-22T06:04:42.522Z,44.10
2019-03-22T06:07:13.198Z,38.20
2019-03-22T06:09:43.766Z,42.83
2019-03-22T06:12:14.368Z,42.80
2019-03-22T06:14:44.980Z,42.17
2019-03-22T06:17:15.600Z,42.33
2019-03-22T06:19:46.184Z,46.50
2019-03-22T06:22:16.816Z,42.27
2019-03-22T06:24:47.466Z,45.43
2019-03-22T06:27:18.098Z,47.50
2019-03-22T06:29:54.029Z,40.53
2019-03-22T06:32:21.055Z,39.40
2019-03-22T06:34:51.662Z,42.73
2019-03-22T06:37:22.263Z,44.57
2019-03-22T06:39:52.944Z,45.53
2019-03-22T06:42:23.514Z,44.30
2019-03-22T06:44:54.113Z,39.40
2019-03-22T06:47:24.670Z,40.13
2019-03-22T06:49:55.258Z,45.00
2019-03-22T06:52:25.846Z,39.70
2019-03-22T06:54:56.480Z,39.67
2019-03-22T06:57:27.090Z,46.13
2019-03-22T07:00:06.288Z,40.90
2019-03-22T07:02:30.040Z,43.87
2019-03-22T07:05:00.635Z,43.43
2019-03-22T07:07:31.237Z,42.20
2019-03-22T07:10:02.682Z,44.60
2019-03-22T07:12:33.264Z,39.17
2019-03-22T07:15:06.187Z,40.37
2019-03-22T07:17:36.750Z,41.63
2019-03-22T07:20:07.502Z,39.87
2019-03-22T07:22:38.084Z,48.17
2019-03-22T07:25:08.703Z,45.57
2019-03-22T07:27:39.277Z,40.87
2019-03-22T07:30:18.491Z,41.53
2019-03-22T07:32:42.273Z,40.03
2019-03-22T07:35:12.960Z,41.03
2019-03-22T07:37:43.539Z,41.63
2019-03-22T07:40:14.195Z,47.77
2019-03-22T07:42:44.805Z,43.37
2019-03-22T07:45:15.399Z,42.97
2019-03-22T07:47:45.961Z,42.33
2019-03-22T07:50:16.651Z,40.80
2019-03-22T07:52:47.197Z,41.27
2019-03-22T07:55:17.811Z,45.07
2019-03-22T07:57:48.372Z,42.23
2019-03-22T08:00:30.174Z,39.27
2019-03-22T08:02:51.291Z,42.63
2019-03-22T08:05:21.905Z,48.90
2019-03-22T08:07:52.503Z,46.93
2019-03-22T08:10:23.147Z,42.37
2019-03-22T08:12:53.729Z,41.93
2019-03-22T08:15:32.205Z,50.37
2019-03-22T08:18:02.912Z,39.53
2019-03-22T08:20:33.488Z,43.10
2019-03-22T08:23:05.629Z,48.60
2019-03-22T08:25:36.239Z,44.23
2019-03-22T08:28:06.807Z,46.93
2019-03-22T08:30:42.986Z,47.83
2019-03-22T08:33:09.715Z,47.07
2019-03-22T08:35:40.367Z,49.27
2019-03-22T08:38:11.090Z,46.20
2019-03-22T08:40:42.182Z,37.93
2019-03-22T08:43:12.826Z,42.17
2019-03-22T08:45:43.538Z,48.23
2019-03-22T08:48:14.189Z,44.30
2019-03-22T08:50:44.947Z,44.00
2019-03-22T08:53:33.347Z,45.80
2019-03-22T08:56:04.020Z,45.07
2019-03-22T08:58:34.799Z,42.30
2019-03-22T09:01:05.845Z,44.60
2019-03-22T09:03:36.518Z,44.33
2019-03-22T09:06:07.975Z,49.93
2019-03-22T09:08:38.741Z,44.27
2019-03-22T09:11:09.423Z,44.33
2019-03-22T09:13:40.085Z,45.63
2019-03-22T09:16:10.753Z,47.33
2019-03-22T09:18:41.428Z,39.97
2019-03-22T09:21:12.927Z,44.53
2019-03-22T09:23:43.571Z,45.27
2019-03-22T09:26:14.247Z,47.53
2019-03-22T09:28:45.010Z,47.03
2019-03-22T09:31:15.618Z,49.57
2019-03-22T09:33:46.146Z,50.57
2019-03-22T09:36:16.724Z,46.97
2019-03-22T09:38:47.319Z,48.33
2019-03-22T09:41:18.006Z,56.70
2019-03-22T09:43:48.580Z,47.17
2019-03-22T09:46:19.246Z,46.50
2019-03-22T09:48:49.858Z,47.60
2019-03-22T09:51:20.503Z,52.57
2019-03-22T09:53:51.036Z,50.33
2019-03-22T09:56:21.608Z,53.03
2019-03-22T09:58:52.180Z,49.33
2019-03-22T10:01:24.035Z,51.80
2019-03-22T10:03:55.044Z,54.30
2019-03-22T10:06:25.620Z,51.63
2019-03-22T10:08:56.161Z,62.03
2019-03-22T10:11:26.769Z,52.90
2019-03-22T10:13:57.462Z,60.03
2019-03-22T10:16:28.098Z,60.50
2019-03-22T10:18:58.779Z,60.67
2019-03-22T10:21:29.420Z,55.63
2019-03-22T10:24:00.109Z,57.33
2019-03-22T10:26:30.751Z,60.60
2019-03-22T10:29:01.305Z,55.43
2019-03-22T10:31:37.029Z,57.13
2019-03-22T10:34:04.242Z,53.07
2019-03-22T10:36:34.927Z,57.13
2019-03-22T10:39:08.509Z,54.40
2019-03-22T10:41:39.104Z,59.00
2019-03-22T10:44:09.845Z,59.00
2019-03-22T10:46:40.539Z,58.93
2019-03-22T10:49:12.143Z,57.63
2019-03-22T10:51:55.818Z,61.60
2019-03-22T10:54:15.060Z,56.27
2019-03-22T10:56:45.648Z,60.57
2019-03-22T10:59:16.265Z,62.30
2019-03-22T11:02:02.234Z,61.03
2019-03-22T11:04:19.253Z,59.00
2019-03-22T11:06:49.846Z,58.90
2019-03-22T11:09:20.556Z,64.67
2019-03-22T11:11:51.908Z,56.07
2019-03-22T11:14:22.623Z,58.40
2019-03-22T11:16:53.267Z,55.50
2019-03-22T11:19:23.950Z,65.10
2019-03-22T11:21:54.509Z,66.87
2019-03-22T11:24:25.142Z,65.37
2019-03-22T11:26:55.749Z,64.17
2019-03-22T11:29:26.390Z,57.93
2019-03-22T11:31:57.093Z,60.77
2019-03-22T11:34:27.696Z,61.47
2019-03-22T11:36:58.385Z,61.43
2019-03-22T11:39:28.987Z,55.13
2019-03-22T11:41:59.560Z,63.20
2019-03-22T11:44:30.162Z,62.77
2019-03-22T11:47:00.751Z,64.47
2019-03-22T11:49:31.367Z,59.87
2019-03-22T11:52:01.920Z,64.50
2019-03-22T11:54:32.504Z,63.63
2019-03-22T11:57:03.186Z,66.53
2019-03-22T11:59:33.800Z,64.83
2019-03-22T12:02:06.218Z,67.27
2019-03-22T12:04:36.860Z,59.97
2019-03-22T12:07:07.452Z,73.43
2019-03-22T12:09:38.075Z,69.30
2019-03-22T12:12:08.658Z,64.70
2019-03-22T12:14:39.272Z,63.27
2019-03-22T12:17:09.882Z,61.20
2019-03-22T12:19:40.530Z,70.67
2019-03-22T12:22:11.136Z,62.23
2019-03-22T12:24:41.839Z,63.63
2019-03-22T12:27:12.575Z,63.20
2019-03-22T12:29:43.274Z,62.33
2019-03-22T12:32:13.892Z,74.40
2019-03-22T12:34:44.499Z,67.73
2019-03-22T12:37:15.119Z,68.37
2019-03-22T12:39:45.895Z,63.27
2019-03-22T12:42:16.452Z,62.87
2019-03-22T12:44:47.089Z,65.27
2019-03-22T12:47:17.731Z,73.70
2019-03-22T12:49:48.368Z,68.13
2019-03-22T12:52:19.069Z,64.47
2019-03-22T12:54:49.678Z,67.87
2019-03-22T12:57:20.325Z,59.87
2019-03-22T12:59:51.105Z,64.07
2019-03-22T13:02:21.731Z,64.07
2019-03-22T13:04:52.384Z,62.93
2019-03-22T13:07:23.027Z,61.00
2019-03-22T13:09:53.780Z,67.90
2019-03-22T13:12:24.389Z,68.23
2019-03-22T13:14:56.683Z,64.17
2019-03-22T13:17:27.478Z,63.27
2019-03-22T13:19:58.106Z,65.00
2019-03-22T13:22:28.691Z,62.10
2019-03-22T13:24:59.319Z,64.27
2019-03-22T13:27:29.973Z,63.50
2019-03-22T13:30:00.573Z,64.77
2019-03-22T13:32:31.197Z,69.30
2019-03-22T13:35:01.770Z,67.73
2019-03-22T13:37:32.344Z,67.83
2019-03-22T13:40:03.022Z,68.80
2019-03-22T13:42:33.572Z,67.57
2019-03-22T13:45:04.591Z,61.30
2019-03-22T13:47:35.348Z,67.93
2019-03-22T13:50:07.772Z,60.07
2019-03-22T13:52:38.431Z,64.03
2019-03-22T13:55:09.209Z,68.63
2019-03-22T13:57:39.785Z,64.37
2019-03-22T14:00:10.599Z,61.30
2019-03-22T14:02:41.250Z,66.03
2019-03-22T14:05:11.844Z,61.10
2019-03-22T14:07:42.460Z,61.20
2019-03-22T14:10:21.688Z,64.43
2019-03-22T14:12:52.315Z,61.07
2019-03-22T14:15:22.968Z,59.90
2019-03-22T14:17:53.517Z,59.00
2019-03-22T14:20:24.105Z,58.67
2019-03-22T14:22:54.680Z,59.93
2019-03-22T14:25:25.288Z,56.80
2019-03-22T14:27:55.861Z,58.07
2019-03-22T14:30:26.498Z,61.17
2019-03-22T14:32:57.079Z,61.47
2019-03-22T14:35:28.582Z,60.00
2019-03-22T14:37:59.345Z,54.83
2019-03-22T14:40:30.008Z,61.47
2019-03-22T14:43:00.579Z,61.43
2019-03-22T14:45:31.187Z,55.27
2019-03-22T14:48:01.759Z,53.90
2019-03-22T14:50:32.324Z,53.23
2019-03-22T14:53:02.911Z,53.07
2019-03-22T14:55:33.523Z,58.83
2019-03-22T14:58:04.097Z,52.27
2019-03-22T15:00:34.646Z,60.27
2019-03-22T15:03:24.124Z,60.13
2019-03-22T15:05:56.060Z,56.97
2019-03-22T15:08:26.621Z,55.53
2019-03-22T15:10:57.203Z,57.27
2019-03-22T15:13:45.768Z,52.87
2019-03-22T15:16:44.180Z,56.60
2019-03-22T15:19:37.231Z,49.23
2019-03-22T15:22:25.363Z,55.33
2019-03-22T15:25:17.890Z,53.07
2019-03-22T15:28:10.613Z,54.17
2019-03-22T15:31:09.291Z,51.87
2019-03-22T15:33:48.316Z,49.50
2019-03-22T15:36:36.823Z,49.83
2019-03-22T15:42:04.273Z,53.13
2019-03-22T15:44:34.804Z,54.90
2019-03-22T15:47:05.426Z,47.33
2019-03-22T15:49:35.992Z,48.03
2019-03-22T15:52:06.568Z,50.07
2019-03-22T15:54:37.124Z,49.37
2019-03-22T15:57:07.832Z,51.03
2019-03-22T15:59:39.387Z,47.97
2019-03-22T16:02:10.141Z,51.37
2019-03-22T16:04:40.741Z,48.97
2019-03-22T16:07:11.345Z,43.07
2019-03-22T16:09:41.902Z,45.67
2019-03-22T16:12:12.560Z,49.57
2019-03-22T16:14:43.164Z,47.60
2019-03-22T16:17:13.845Z,51.73
2019-03-22T16:19:44.458Z,58.20
2019-03-22T16:22:15.014Z,56.40
2019-03-22T16:24:45.630Z,53.17
2019-03-22T16:27:16.175Z,55.17
2019-03-22T16:29:46.790Z,54.07
2019-03-22T16:32:17.358Z,53.30
2019-03-22T16:34:47.950Z,57.37
2019-03-22T16:37:18.513Z,60.60
2019-03-22T16:39:49.138Z,53.60
2019-03-22T16:42:19.724Z,60.80
2019-03-22T16:44:50.337Z,55.13
2019-03-22T16:47:20.900Z,53.80
2019-03-22T16:49:51.476Z,52.60
2019-03-22T16:52:22.010Z,52.90
2019-03-22T16:54:52.611Z,53.97
2019-03-22T16:57:23.200Z,54.23
2019-03-22T16:59:53.848Z,52.73
2019-03-22T17:02:24.432Z,52.13
2019-03-22T17:04:55.004Z,54.83
2019-03-22T17:07:25.557Z,52.83
2019-03-22T17:09:56.179Z,49.30
2019-03-22T17:12:26.802Z,54.83
2019-03-22T17:14:57.384Z,54.03
2019-03-22T17:17:27.933Z,52.57
2019-03-22T17:19:58.545Z,51.63
2019-03-22T17:22:29.107Z,54.20
2019-03-22T17:24:59.695Z,50.33
2019-03-22T17:27:30.261Z,53.47
2019-03-22T17:30:02.373Z,48.15
2019-03-22T17:32:32.979Z,59.77
2019-03-22T17:35:03.618Z,53.53
2019-03-22T17:37:34.225Z,48.00
2019-03-22T17:40:05.153Z,59.87
2019-03-22T17:42:35.801Z,54.03
2019-03-22T17:45:07.229Z,53.90
2019-03-22T17:47:37.836Z,55.10
2019-03-22T17:50:08.608Z,55.00
2019-03-22T17:52:39.263Z,53.03
2019-03-22T17:55:11.307Z,53.60
2019-03-22T17:57:41.907Z,52.00
2019-03-22T18:00:13.154Z,60.93
2019-03-22T18:02:43.803Z,54.53
2019-03-22T18:05:14.845Z,60.87
2019-03-22T18:07:45.454Z,53.10
2019-03-22T18:10:16.198Z,51.50
2019-03-22T18:12:46.813Z,55.90
2019-03-22T18:15:17.635Z,55.77
2019-03-22T18:17:48.246Z,60.13
2019-03-22T18:20:18.849Z,53.73
2019-03-22T18:22:49.540Z,63.20
2019-03-22T18:25:20.077Z,57.37
2019-03-22T18:27:50.757Z,54.43
2019-03-22T18:30:21.351Z,58.53
2019-03-22T18:32:51.983Z,59.87
2019-03-22T18:35:22.680Z,56.13
2019-03-22T18:37:53.304Z,61.97
2019-03-22T18:40:23.922Z,57.17
2019-03-22T18:42:54.531Z,65.63
2019-03-22T18:45:25.117Z,66.00
2019-03-22T18:47:55.714Z,67.23
2019-03-22T18:50:26.307Z,60.20
2019-03-22T18:52:56.909Z,65.20
2019-03-22T18:55:27.535Z,59.77
2019-03-22T18:57:58.243Z,70.03
2019-03-22T19:00:28.939Z,64.73
2019-03-22T19:02:59.714Z,67.17
2019-03-22T19:05:30.474Z,64.53
2019-03-22T19:08:05.754Z,65.90
2019-03-22T19:10:36.376Z,66.67
2019-03-22T19:13:07.884Z,71.00
2019-03-22T19:15:38.551Z,64.77
2019-03-22T19:18:09.230Z,63.70
2019-03-22T19:20:39.925Z,67.10
2019-03-22T19:23:10.699Z,68.43
2019-03-22T19:25:41.395Z,66.30
2019-03-22T19:28:12.132Z,65.30
2019-03-22T19:30:42.806Z,62.77
2019-03-22T19:33:13.472Z,71.33
2019-03-22T19:35:44.158Z,65.63
2019-03-22T19:38:14.812Z,67.17
2019-03-22T19:40:45.576Z,65.83
2019-03-22T19:43:16.365Z,71.23
2019-03-22T19:45:46.985Z,81.73
2019-03-22T19:48:17.689Z,74.80
2019-03-22T19:50:48.271Z,66.30
2019-03-22T19:53:18.896Z,70.67
2019-03-22T19:55:49.458Z,69.23
2019-03-22T19:58:20.059Z,68.03
2019-03-22T20:00:50.671Z,66.90
2019-03-22T20:03:21.932Z,65.70
2019-03-22T20:05:52.603Z,61.23
2019-03-22T20:08:23.269Z,64.20
2019-03-22T20:10:53.877Z,75.20
2019-03-22T20:13:24.524Z,71.13
2019-03-22T20:15:55.137Z,71.43
2019-03-22T20:18:25.743Z,69.23
2019-03-22T20:20:56.334Z,74.10
2019-03-22T20:23:26.926Z,67.83
2019-03-22T20:25:57.534Z,69.07
2019-03-22T20:28:28.130Z,69.90
2019-03-22T20:30:58.707Z,67.93
2019-03-22T20:33:29.314Z,67.47
2019-03-22T20:35:59.930Z,66.00
2019-03-22T20:38:30.533Z,68.93
2019-03-22T20:41:01.115Z,65.43
2019-03-22T20:43:31.751Z,65.43
2019-03-22T20:46:02.387Z,70.23
2019-03-22T20:48:32.978Z,66.70
2019-03-22T20:51:03.717Z,68.33
2019-03-22T20:53:34.285Z,66.03
2019-03-22T20:56:04.952Z,68.60
2019-03-22T20:58:35.645Z,73.47
2019-03-22T21:01:06.270Z,67.43
2019-03-22T21:03:36.904Z,66.53
2019-03-22T21:06:07.670Z,68.67
2019-03-22T21:08:38.288Z,62.20
2019-03-22T21:11:08.901Z,70.43
2019-03-22T21:13:39.470Z,69.53
2019-03-22T21:16:10.102Z,65.53
2019-03-22T21:18:40.709Z,71.73
2019-03-22T21:21:11.382Z,69.43
2019-03-22T21:23:41.984Z,67.40
2019-03-22T21:26:12.620Z,68.77
2019-03-22T21:28:43.199Z,70.73
2019-03-22T21:31:13.918Z,66.97
2019-03-22T21:33:44.502Z,77.45
2019-03-22T21:36:15.140Z,73.50
2019-03-22T21:38:45.790Z,73.70
2019-03-22T21:41:16.403Z,69.93
2019-03-22T21:43:47.023Z,73.33
2019-03-22T21:46:17.790Z,71.20
2019-03-22T21:48:48.477Z,73.13
2019-03-22T21:51:19.108Z,71.33
2019-03-22T21:53:49.727Z,72.70
2019-03-22T21:56:20.359Z,69.80
2019-03-22T21:58:50.994Z,71.37
2019-03-22T22:01:21.612Z,76.40
2019-03-22T22:03:52.280Z,73.80
2019-03-22T22:06:23.026Z,66.47
2019-03-22T22:08:53.618Z,79.30
2019-03-22T22:11:25.030Z,69.43
2019-03-22T22:13:55.669Z,71.23
2019-03-22T22:16:26.324Z,76.97
2019-03-22T22:18:57.040Z,71.87
2019-03-22T22:21:27.757Z,64.93
2019-03-22T22:23:58.459Z,71.70
2019-03-22T22:26:29.108Z,71.30
2019-03-22T22:28:59.750Z,69.73
2019-03-22T22:31:30.427Z,70.63
2019-03-22T22:34:01.132Z,72.00
2019-03-22T22:36:31.816Z,65.27
2019-03-22T22:39:02.458Z,66.20
2019-03-22T22:41:33.227Z,70.37
2019-03-22T22:44:03.830Z,73.90
2019-03-22T22:46:34.456Z,75.10
2019-03-22T22:49:05.162Z,74.03
2019-03-22T22:51:35.782Z,70.90
2019-03-22T22:54:06.396Z,62.50
2019-03-22T22:56:37.018Z,71.57
2019-03-22T22:59:07.746Z,61.47
2019-03-22T23:01:38.352Z,72.00
2019-03-22T23:04:09.000Z,69.70
2019-03-22T23:06:39.684Z,68.10
2019-03-22T23:09:10.915Z,71.80
2019-03-22T23:11:41.606Z,67.50
2019-03-22T23:14:12.251Z,67.37
2019-03-22T23:16:42.934Z,74.07
2019-03-22T23:19:13.487Z,76.27
2019-03-22T23:21:45.808Z,65.53
2019-03-22T23:24:15.628Z,69.13
2019-03-22T23:26:45.500Z,72.20
2019-03-22T23:29:15.321Z,73.30
2019-03-22T23:31:45.163Z,74.10
2019-03-22T23:34:14.961Z,72.90
2019-03-22T23:36:44.760Z,67.47
2019-03-22T23:39:14.585Z,69.90
2019-03-22T23:41:44.368Z,70.03
2019-03-22T23:44:14.186Z,69.83
2019-03-22T23:46:43.990Z,70.23
2019-03-22T23:49:13.854Z,71.47
2019-03-22T23:51:43.669Z,69.40
2019-03-22T23:54:13.483Z,69.03
2019-03-22T23:56:43.261Z,67.10
2019-03-22T23:59:13.092Z,72.47
